Погода Пудовойна неделю

Ростовская область, Россия

24 - 30 июля
  • 24июля
    Сегодня
    +19°
    +28°
    Облачно с прояснениями
    ВремяПогодаТемператураВлажностьДавлениеВетер, м/сВероятность осадков
    00:00Ясно и безоблачно+24°C79 %753 мм1.8 м/с17 %
    03:00Практически безоблачно+22°C82 %753 мм1.8 м/с2 %
    06:00Ясно и безоблачно+21°C80 %753 мм2.0 м/с2 %
    09:00Ясно и безоблачно+24°C67 %753 мм1.6 м/с2 %
    12:00Практически безоблачно+26°C52 %753 мм1.4 м/с10 %
    15:00Облачно с прояснениями+28°C44 %752 мм1.6 м/с13 %
    18:00Небольшая облачность и лёгкий дождик+26°C49 %752 мм1.6 м/с27 %
    21:00Практически безоблачно+24°C59 %753 мм1.4 м/с3 %
  • 25июля
    Четверг
    +21°
    +28°
    Практически безоблачно
    ВремяПогодаТемператураВлажностьДавлениеВетер, м/сВероятность осадков
    00:00Ясно и безоблачно+22°C68 %753 мм2.3 м/с2 %
    03:00Ясно и безоблачно+21°C75 %753 мм2.0 м/с2 %
    06:00Ясно и безоблачно+20°C82 %753 мм2.5 м/с2 %
    09:00Ясно и безоблачно+24°C58 %754 мм1.4 м/с2 %
    12:00Практически безоблачно+27°C44 %753 мм1.7 м/с2 %
    15:00Практически безоблачно+27°C43 %753 мм1.4 м/с2 %
    18:00Ясно и безоблачно+27°C42 %753 мм0.7 м/с2 %
    21:00Ясно и безоблачно+25°C56 %753 мм1.1 м/с2 %
  • 26июля
    Пятница
    +21°
    +30°
    Небольшая облачность
    ВремяПогодаТемператураВлажностьДавлениеВетер, м/сВероятность осадков
    00:00Ясно и безоблачно+24°C67 %753 мм1.9 м/с2 %
    03:00Ясно и безоблачно+22°C68 %753 мм2.1 м/с2 %
    06:00Небольшая облачность+21°C65 %753 мм2.3 м/с2 %
    09:00Небольшая облачность+26°C55 %754 мм1.8 м/с2 %
    12:00Практически безоблачно+29°C41 %754 мм2.4 м/с4 %
    15:00Небольшая облачность+30°C38 %753 мм1.6 м/с2 %
    18:00Ясно и безоблачно+29°C38 %753 мм1.1 м/с2 %
    21:00Ясно и безоблачно+28°C50 %754 мм1.5 м/с2 %
  • 27июля
    Суббота
    +21°
    +32°
    Практически безоблачно
    ВремяПогодаТемператураВлажностьДавлениеВетер, м/сВероятность осадков
    00:00Ясно и безоблачно+25°C59 %755 мм2.8 м/с2 %
    03:00Практически безоблачно+23°C55 %756 мм2.8 м/с2 %
    06:00Ясно и безоблачно+22°C61 %757 мм2.9 м/с2 %
    09:00Облачно с прояснениями+27°C50 %758 мм2.3 м/с2 %
    12:00Облачно с прояснениями+29°C37 %758 мм2.8 м/с2 %
    15:00Практически безоблачно+31°C29 %758 мм1.6 м/с2 %
    18:00Небольшая облачность+30°C35 %758 мм1.0 м/с2 %
    21:00Облачно с прояснениями+27°C49 %759 мм0.9 м/с2 %
  • 28июля
    Воскресенье
    +23°
    +31°
    Ясно и безоблачно
    ВремяПогодаТемператураВлажностьДавлениеВетер, м/сВероятность осадков
    00:00Облачно с прояснениями+25°C56 %760 мм1.9 м/с2 %
    03:00Ясно и безоблачно+23°C60 %760 мм1.5 м/с2 %
    06:00Ясно и безоблачно+22°C63 %761 мм2.3 м/с2 %
    09:00Ясно и безоблачно+27°C51 %762 мм1.2 м/с2 %
    12:00Ясно и безоблачно+29°C39 %761 мм1.4 м/с2 %
    15:00Ясно и безоблачно+31°C34 %761 мм0.9 м/с2 %
    18:00Практически безоблачно+30°C37 %760 мм0.9 м/с2 %
    21:00Ясно и безоблачно+27°C60 %760 мм1.4 м/с2 %
Мы используем cookies
Соглашаюсь